createdAt,value
2022-09-27T00:01:01.087Z,51.60
2022-09-27T00:03:29.079Z,51.40
2022-09-27T00:06:15.247Z,51.90
2022-09-27T00:08:42.687Z,51.70
2022-09-27T00:11:35.317Z,52.20
2022-09-27T00:14:02.108Z,52.40
2022-09-27T00:16:35.369Z,52.50
2022-09-27T00:19:05.351Z,52.90
2022-09-27T00:21:32.458Z,53.40
2022-09-27T00:23:59.803Z,54.20
2022-09-27T00:26:27.448Z,54.90
2022-09-27T00:28:54.280Z,55.10
2022-09-27T00:31:24.129Z,55.50
2022-09-27T00:33:53.223Z,56.30
2022-09-27T00:36:21.778Z,57.50
2022-09-27T00:38:48.600Z,58.70
2022-09-27T00:41:30.579Z,57.70
2022-09-27T00:44:04.525Z,58.20
2022-09-27T00:46:43.367Z,58.80
2022-09-27T00:49:25.672Z,59.20
2022-09-27T00:51:59.882Z,59.30
2022-09-27T00:54:29.340Z,59.40
2022-09-27T00:56:56.790Z,60.00
2022-09-27T00:59:50.681Z,61.00
2022-09-27T01:02:18.419Z,61.50
2022-09-27T01:04:47.607Z,61.90
2022-09-27T01:07:14.605Z,62.10
2022-09-27T01:09:41.735Z,62.30
2022-09-27T01:12:50.783Z,62.30
2022-09-27T01:15:54.012Z,63.00
2022-09-27T01:18:54.368Z,63.10
2022-09-27T01:21:51.023Z,63.30
2022-09-27T01:24:37.282Z,64.70
2022-09-27T01:27:16.030Z,64.80
2022-09-27T01:30:15.864Z,65.40
2022-09-27T01:32:58.379Z,66.80
2022-09-27T01:35:47.410Z,67.30
2022-09-27T01:38:42.490Z,68.10
2022-09-27T01:41:19.340Z,69.10
2022-09-27T01:44:00.817Z,70.40
2022-09-27T01:46:33.806Z,72.50
2022-09-27T01:49:05.806Z,72.60
2022-09-27T01:51:43.083Z,72.70
2022-09-27T01:54:14.966Z,73.70
2022-09-27T01:56:48.920Z,72.90
2022-09-27T01:59:22.868Z,73.50
2022-09-27T02:01:52.368Z,74.00
2022-09-27T02:04:26.733Z,75.00
2022-09-27T02:06:59.481Z,75.70
2022-09-27T02:09:35.532Z,75.70
2022-09-27T02:12:06.870Z,76.30
2022-09-27T02:14:42.486Z,76.90
2022-09-27T02:17:15.904Z,78.60
2022-09-27T02:20:05.233Z,78.80
2022-09-27T02:22:48.040Z,78.80
2022-09-27T02:25:43.143Z,79.80
2022-09-27T02:28:36.253Z,80.40
2022-09-27T02:31:03.046Z,81.90
2022-09-27T02:33:39.239Z,82.10
2022-09-27T02:36:06.279Z,82.70
2022-09-27T02:38:33.538Z,83.10
2022-09-27T02:41:00.305Z,83.30
2022-09-27T02:43:31.075Z,84.20
2022-09-27T02:45:58.291Z,83.80
2022-09-27T02:48:43.145Z,83.00
2022-09-27T02:51:28.001Z,84.00
2022-09-27T02:54:26.185Z,84.70
2022-09-27T02:57:20.485Z,84.20
2022-09-27T03:00:05.000Z,85.20
2022-09-27T03:02:41.131Z,85.80
2022-09-27T03:05:17.490Z,85.00
2022-09-27T03:07:44.597Z,84.60
2022-09-27T03:10:18.704Z,84.80
2022-09-27T03:12:45.454Z,84.30
2022-09-27T03:15:12.248Z,85.30
2022-09-27T03:17:38.965Z,84.80
2022-09-27T03:20:06.964Z,84.40
2022-09-27T03:22:33.713Z,85.10
2022-09-27T03:25:00.644Z,85.10
2022-09-27T03:27:27.363Z,85.80
2022-09-27T03:29:54.107Z,85.10
2022-09-27T03:32:20.905Z,84.30
2022-09-27T03:34:47.650Z,84.40
2022-09-27T03:37:14.377Z,85.00
2022-09-27T03:39:41.109Z,84.80
2022-09-27T03:42:07.789Z,84.80
2022-09-27T03:44:34.508Z,84.40
2022-09-27T03:47:01.546Z,84.80
2022-09-27T03:49:28.458Z,84.50
2022-09-27T03:51:55.170Z,85.20
2022-09-27T03:54:21.894Z,85.20
2022-09-27T03:56:48.584Z,85.80
2022-09-27T03:59:15.528Z,85.10
2022-09-27T04:01:44.591Z,85.00
2022-09-27T04:04:11.590Z,84.50
2022-09-27T04:06:38.322Z,84.80
2022-09-27T04:09:05.066Z,84.80
2022-09-27T04:11:31.807Z,85.30
2022-09-27T04:13:58.881Z,83.50
2022-09-27T04:16:25.735Z,83.30
2022-09-27T04:18:52.501Z,81.40
2022-09-27T04:21:20.667Z,81.90
2022-09-27T04:23:47.421Z,82.70
2022-09-27T04:26:14.323Z,83.30
2022-09-27T04:28:41.027Z,83.80
2022-09-27T04:31:07.902Z,83.20
2022-09-27T04:33:34.727Z,83.60
2022-09-27T04:36:20.090Z,83.40
2022-09-27T04:38:48.037Z,82.30
2022-09-27T04:41:15.412Z,82.20
2022-09-27T04:43:42.275Z,82.00
2022-09-27T04:46:09.034Z,81.00
2022-09-27T04:48:35.832Z,80.20
2022-09-27T04:51:03.137Z,80.00
2022-09-27T04:53:30.385Z,79.50
2022-09-27T04:55:57.709Z,79.60
2022-09-27T04:58:24.962Z,79.00
2022-09-27T05:00:55.874Z,79.30
2022-09-27T05:03:23.407Z,78.50
2022-09-27T05:05:50.134Z,78.70
2022-09-27T05:08:16.948Z,78.80
2022-09-27T05:10:43.634Z,79.70
2022-09-27T05:13:10.417Z,79.80
2022-09-27T05:15:37.212Z,80.30
2022-09-27T05:18:03.924Z,80.70
2022-09-27T05:20:30.795Z,80.00
2022-09-27T05:22:57.467Z,80.10
2022-09-27T05:25:24.430Z,78.80
2022-09-27T05:27:51.693Z,79.20
2022-09-27T05:30:18.939Z,78.80
2022-09-27T05:32:48.840Z,76.40
2022-09-27T05:35:18.215Z,76.30
2022-09-27T05:37:54.033Z,76.30
2022-09-27T05:40:40.432Z,76.00
2022-09-27T05:43:08.295Z,75.80
2022-09-27T05:45:35.036Z,75.60
2022-09-27T05:48:02.002Z,74.00
2022-09-27T05:50:28.896Z,73.20
2022-09-27T05:52:55.638Z,73.70
2022-09-27T05:55:22.496Z,73.90
2022-09-27T05:57:57.358Z,73.20
2022-09-27T06:00:25.844Z,72.70
2022-09-27T06:03:00.576Z,71.30
2022-09-27T06:05:31.236Z,71.40
2022-09-27T06:08:04.436Z,70.50
2022-09-27T06:10:32.473Z,70.70
2022-09-27T06:13:12.239Z,71.50
2022-09-27T06:15:40.562Z,71.70
2022-09-27T06:18:12.686Z,70.80
2022-09-27T06:20:41.551Z,70.80
2022-09-27T06:23:09.546Z,71.20
2022-09-27T06:25:37.348Z,70.30
2022-09-27T06:28:05.011Z,68.50
2022-09-27T06:30:32.835Z,68.10
2022-09-27T06:33:03.286Z,66.40
2022-09-27T06:35:31.261Z,66.50
2022-09-27T06:37:58.546Z,66.00
2022-09-27T06:40:26.343Z,64.20
2022-09-27T06:42:53.572Z,63.80
2022-09-27T06:45:20.420Z,63.90
2022-09-27T06:47:47.256Z,62.70
2022-09-27T06:50:14.430Z,63.00
2022-09-27T06:52:48.665Z,64.30
2022-09-27T06:55:16.492Z,64.70
2022-09-27T06:58:01.886Z,64.10
2022-09-27T07:00:28.857Z,64.30
2022-09-27T07:03:00.879Z,64.00
2022-09-27T07:05:29.246Z,62.60
2022-09-27T07:07:57.741Z,62.70
2022-09-27T07:10:30.092Z,63.00
2022-09-27T07:12:58.322Z,63.20
2022-09-27T07:15:25.235Z,62.60
2022-09-27T07:17:58.538Z,62.20
2022-09-27T07:20:26.652Z,62.20
2022-09-27T07:22:53.483Z,63.20
2022-09-27T07:25:20.214Z,63.30
2022-09-27T07:27:46.926Z,63.10
2022-09-27T07:30:14.264Z,64.00
2022-09-27T07:32:41.103Z,61.30
2022-09-27T07:35:09.593Z,62.20
2022-09-27T07:37:37.578Z,63.10
2022-09-27T07:40:07.489Z,63.20
2022-09-27T07:42:34.416Z,61.50
2022-09-27T07:45:01.104Z,63.20
2022-09-27T07:47:27.881Z,61.80
2022-09-27T07:49:54.571Z,60.90
2022-09-27T07:52:21.828Z,60.90
2022-09-27T07:54:48.878Z,60.60
2022-09-27T07:57:16.222Z,60.50
2022-09-27T07:59:43.263Z,59.40
2022-09-27T08:02:15.211Z,58.40
2022-09-27T08:04:43.669Z,56.70
2022-09-27T08:07:14.238Z,54.20
2022-09-27T08:09:41.579Z,53.30
2022-09-27T08:12:08.559Z,53.10
2022-09-27T08:14:39.764Z,51.00
2022-09-27T08:17:11.830Z,51.20
2022-09-27T08:19:39.603Z,52.70
2022-09-27T08:22:07.859Z,52.10
2022-09-27T08:24:34.569Z,53.50
2022-09-27T08:27:02.370Z,53.00
2022-09-27T08:29:29.091Z,53.10
2022-09-27T08:31:55.869Z,53.70
2022-09-27T08:34:23.195Z,52.90
2022-09-27T08:36:49.881Z,53.10
2022-09-27T08:39:16.801Z,52.00
2022-09-27T08:41:52.721Z,53.50
2022-09-27T08:45:02.401Z,51.70
2022-09-27T08:47:43.712Z,50.70
2022-09-27T08:50:40.045Z,50.30
2022-09-27T08:53:28.086Z,49.90
2022-09-27T08:55:59.331Z,47.70
2022-09-27T08:58:30.868Z,47.60
2022-09-27T09:01:03.504Z,47.50
2022-09-27T09:03:34.569Z,47.20
2022-09-27T09:06:22.553Z,46.30
2022-09-27T09:09:04.058Z,46.00
2022-09-27T09:12:21.284Z,45.60
2022-09-27T09:15:08.696Z,44.70
2022-09-27T09:17:57.244Z,44.60
2022-09-27T09:21:03.147Z,43.70
2022-09-27T09:23:38.826Z,44.00
2022-09-27T09:26:32.044Z,43.90
2022-09-27T09:29:05.662Z,44.30
2022-09-27T09:31:51.937Z,41.90
2022-09-27T09:34:38.909Z,41.70
2022-09-27T09:37:25.843Z,42.10
2022-09-27T09:39:58.492Z,43.00
2022-09-27T09:42:35.890Z,43.60
2022-09-27T09:45:16.164Z,43.50
2022-09-27T09:48:03.320Z,44.20
2022-09-27T09:50:43.233Z,43.70
2022-09-27T09:53:12.978Z,40.70
2022-09-27T09:55:42.408Z,40.60
2022-09-27T09:58:19.892Z,41.20
2022-09-27T10:00:50.680Z,41.80
2022-09-27T10:03:17.569Z,41.40
2022-09-27T10:05:45.569Z,41.10
2022-09-27T10:08:22.235Z,40.90
2022-09-27T10:10:48.982Z,39.60
2022-09-27T10:13:18.640Z,40.10
2022-09-27T10:16:05.276Z,39.90
2022-09-27T10:18:32.914Z,41.10
2022-09-27T10:21:04.113Z,40.90
2022-09-27T10:23:31.406Z,40.20
2022-09-27T10:26:04.625Z,40.00
2022-09-27T10:28:34.060Z,40.00
2022-09-27T10:31:03.882Z,39.80
2022-09-27T10:33:31.812Z,39.30
2022-09-27T10:35:59.608Z,39.50
2022-09-27T10:38:35.866Z,39.60
2022-09-27T10:41:31.624Z,39.60
2022-09-27T10:44:18.557Z,39.40
2022-09-27T10:46:50.834Z,40.00
2022-09-27T10:49:31.878Z,41.20
2022-09-27T10:52:02.308Z,40.20
2022-09-27T10:54:32.409Z,40.00
2022-09-27T10:57:01.959Z,40.10
2022-09-27T10:59:31.440Z,40.40
2022-09-27T11:01:58.667Z,39.70
2022-09-27T11:04:34.656Z,39.90
2022-09-27T11:07:20.417Z,41.90
2022-09-27T11:10:03.178Z,45.10
2022-09-27T11:12:32.025Z,45.80
2022-09-27T11:15:02.763Z,46.50
2022-09-27T11:17:57.167Z,46.40
2022-09-27T11:20:44.168Z,51.20
2022-09-27T11:23:19.752Z,55.00
2022-09-27T11:26:25.002Z,57.20
2022-09-27T11:29:21.088Z,57.60
2022-09-27T11:32:20.077Z,57.20
2022-09-27T11:34:55.583Z,58.60
2022-09-27T11:37:57.296Z,60.60
2022-09-27T11:41:08.724Z,55.20
2022-09-27T11:43:48.973Z,55.00
2022-09-27T11:46:36.612Z,57.20
2022-09-27T11:49:21.850Z,57.40
2022-09-27T11:51:51.276Z,58.70
2022-09-27T11:54:46.617Z,57.90
2022-09-27T11:57:26.423Z,57.10
2022-09-27T12:00:12.327Z,55.00
2022-09-27T12:02:39.061Z,54.30
2022-09-27T12:05:29.054Z,53.10
2022-09-27T12:08:07.378Z,56.00
2022-09-27T12:10:38.149Z,54.70
2022-09-27T12:13:05.433Z,53.80
2022-09-27T12:15:40.401Z,53.90
2022-09-27T12:18:16.896Z,53.10
2022-09-27T12:20:44.227Z,52.60
2022-09-27T12:23:36.951Z,52.20
2022-09-27T12:26:13.981Z,50.80
2022-09-27T12:28:54.203Z,51.10
2022-09-27T12:31:58.687Z,50.50
2022-09-27T12:34:43.185Z,50.40
2022-09-27T12:37:25.269Z,50.30
2022-09-27T12:40:53.469Z,51.30
2022-09-27T12:43:29.058Z,49.90
2022-09-27T12:46:13.277Z,49.20
2022-09-27T12:48:51.182Z,48.50
2022-09-27T12:51:20.897Z,49.10
2022-09-27T12:54:14.939Z,49.20
2022-09-27T12:57:03.498Z,49.30
2022-09-27T12:59:34.263Z,50.40
2022-09-27T13:02:26.996Z,48.30
2022-09-27T13:05:17.121Z,45.00
2022-09-27T13:08:15.759Z,41.70
2022-09-27T13:11:05.926Z,40.10
2022-09-27T13:13:36.585Z,40.10
2022-09-27T13:16:05.044Z,40.20
2022-09-27T13:18:53.025Z,39.40
2022-09-27T13:21:51.509Z,40.10
2022-09-27T13:24:44.860Z,40.80
2022-09-27T13:27:23.659Z,41.10
2022-09-27T13:29:51.587Z,41.50
2022-09-27T13:32:26.219Z,40.50
2022-09-27T13:34:56.598Z,38.90
2022-09-27T13:37:29.087Z,38.90
2022-09-27T13:40:27.568Z,38.70
2022-09-27T13:43:03.407Z,38.70
2022-09-27T13:45:41.651Z,37.90
2022-09-27T13:48:16.050Z,38.90
2022-09-27T13:50:51.664Z,38.50
2022-09-27T13:53:30.277Z,38.50
2022-09-27T13:55:57.347Z,38.90
2022-09-27T13:58:55.916Z,39.30
2022-09-27T14:01:30.570Z,39.60
2022-09-27T14:04:21.976Z,40.00
2022-09-27T14:06:53.274Z,40.00
2022-09-27T14:09:41.111Z,40.80
2022-09-27T14:12:16.475Z,41.30
2022-09-27T14:14:43.689Z,40.70
2022-09-27T14:17:11.633Z,40.50
2022-09-27T14:19:44.651Z,41.20
2022-09-27T14:22:16.460Z,42.40
2022-09-27T14:24:44.318Z,43.60
2022-09-27T14:27:29.452Z,43.90
2022-09-27T14:30:20.737Z,44.10
2022-09-27T14:33:01.872Z,44.40
2022-09-27T14:35:49.161Z,45.10
2022-09-27T14:38:37.232Z,45.40
2022-09-27T14:41:07.920Z,45.00
2022-09-27T14:43:37.082Z,45.70
2022-09-27T14:46:07.038Z,45.70
2022-09-27T14:48:34.078Z,46.10
2022-09-27T14:51:14.300Z,47.70
2022-09-27T14:53:53.283Z,49.50
2022-09-27T14:56:22.812Z,50.80
2022-09-27T14:58:58.527Z,51.80
2022-09-27T15:01:25.780Z,53.10
2022-09-27T15:03:53.622Z,55.60
2022-09-27T15:06:21.006Z,58.60
2022-09-27T15:08:50.320Z,62.00
2022-09-27T15:11:19.416Z,64.10
2022-09-27T15:13:51.222Z,68.40
2022-09-27T15:16:20.660Z,66.50
2022-09-27T15:18:50.561Z,69.30
2022-09-27T15:21:35.626Z,69.80
2022-09-27T15:24:03.370Z,69.30
2022-09-27T15:26:45.920Z,70.50
2022-09-27T15:29:24.622Z,68.00
2022-09-27T15:32:04.144Z,66.50
2022-09-27T15:34:33.868Z,67.70
2022-09-27T15:37:06.236Z,69.00
2022-09-27T15:39:39.113Z,69.90
2022-09-27T15:42:17.250Z,69.60
2022-09-27T15:44:50.994Z,69.60
2022-09-27T15:47:36.412Z,68.00
2022-09-27T15:50:15.133Z,68.40
2022-09-27T15:52:44.090Z,68.00
2022-09-27T15:55:14.946Z,69.00
2022-09-27T15:57:42.036Z,68.50
2022-09-27T16:00:20.645Z,68.50
2022-09-27T16:02:47.909Z,69.10
2022-09-27T16:05:14.637Z,69.40
2022-09-27T16:07:41.822Z,70.70
2022-09-27T16:10:15.427Z,71.20
2022-09-27T16:12:42.133Z,71.50
2022-09-27T16:15:09.235Z,72.20
2022-09-27T16:17:37.914Z,72.60
2022-09-27T16:20:06.097Z,73.50
2022-09-27T16:22:32.848Z,75.20
2022-09-27T16:24:59.603Z,74.00
2022-09-27T16:27:27.467Z,73.90
2022-09-27T16:29:54.652Z,74.90
2022-09-27T16:32:21.604Z,75.30
2022-09-27T16:34:48.469Z,75.80
2022-09-27T16:37:15.409Z,74.90
2022-09-27T16:39:42.156Z,72.10
2022-09-27T16:42:09.981Z,73.20
2022-09-27T16:44:36.737Z,73.50
2022-09-27T16:47:04.589Z,76.00
2022-09-27T16:49:50.175Z,79.80
2022-09-27T16:52:16.951Z,78.90
2022-09-27T16:54:43.741Z,78.40
2022-09-27T16:57:10.576Z,77.30
2022-09-27T16:59:37.584Z,77.70
2022-09-27T17:02:05.563Z,78.60
2022-09-27T17:04:32.401Z,79.10
2022-09-27T17:06:59.146Z,79.90
2022-09-27T17:09:25.843Z,80.80
2022-09-27T17:11:52.723Z,81.30
2022-09-27T17:14:19.810Z,81.70
2022-09-27T17:16:48.334Z,82.00
2022-09-27T17:19:16.739Z,81.80
2022-09-27T17:21:43.668Z,80.70
2022-09-27T17:24:10.829Z,81.40
2022-09-27T17:26:38.072Z,81.80
2022-09-27T17:29:04.790Z,81.40
2022-09-27T17:31:34.179Z,80.90
2022-09-27T17:34:01.916Z,80.90
2022-09-27T17:36:33.895Z,80.60
2022-09-27T17:39:01.471Z,80.90
2022-09-27T17:41:29.184Z,81.00
2022-09-27T17:43:58.859Z,80.30
2022-09-27T17:46:28.154Z,79.20
2022-09-27T17:49:13.431Z,78.50
2022-09-27T17:51:41.822Z,77.30
2022-09-27T17:54:10.350Z,76.80
2022-09-27T17:56:38.329Z,77.00
2022-09-27T17:59:05.901Z,76.80
2022-09-27T18:01:33.221Z,76.30
2022-09-27T18:04:01.561Z,76.30
2022-09-27T18:06:29.188Z,76.10
2022-09-27T18:08:56.769Z,76.10
2022-09-27T18:11:28.966Z,76.40
2022-09-27T18:14:01.726Z,76.10
2022-09-27T18:16:32.359Z,76.30
2022-09-27T18:19:02.922Z,74.50
2022-09-27T18:21:31.485Z,74.70
2022-09-27T18:24:00.111Z,73.50
2022-09-27T18:26:28.898Z,71.30
2022-09-27T18:29:00.247Z,71.60
2022-09-27T18:31:27.143Z,72.00
2022-09-27T18:33:54.066Z,73.20
2022-09-27T18:36:23.382Z,74.30
2022-09-27T18:39:01.304Z,74.00
2022-09-27T18:41:30.672Z,74.80
2022-09-27T18:44:00.953Z,74.80
2022-09-27T18:46:36.927Z,75.00
2022-09-27T18:49:05.948Z,75.70
2022-09-27T18:51:34.031Z,76.10
2022-09-27T18:54:02.939Z,76.30
2022-09-27T18:56:30.681Z,77.50
2022-09-27T18:58:58.763Z,78.60
2022-09-27T19:01:25.815Z,78.60
2022-09-27T19:03:53.160Z,78.60
2022-09-27T19:06:22.888Z,79.20
2022-09-27T19:08:58.931Z,79.80
2022-09-27T19:11:27.127Z,79.40
2022-09-27T19:13:56.090Z,79.70
2022-09-27T19:16:23.967Z,79.50
2022-09-27T19:18:50.950Z,79.40
2022-09-27T19:21:23.171Z,79.00
2022-09-27T19:23:51.439Z,79.70
2022-09-27T19:26:20.574Z,80.10
2022-09-27T19:28:47.615Z,80.20
2022-09-27T19:31:25.503Z,80.60
2022-09-27T19:33:58.971Z,80.30
2022-09-27T19:36:27.353Z,81.20
2022-09-27T19:38:54.597Z,80.70
2022-09-27T19:41:21.288Z,81.10
2022-09-27T19:43:52.199Z,81.00
2022-09-27T19:46:20.224Z,81.10
2022-09-27T19:48:49.581Z,81.50
2022-09-27T19:51:27.230Z,82.40
2022-09-27T19:53:55.007Z,82.40
2022-09-27T19:56:22.730Z,82.70
2022-09-27T19:58:49.807Z,82.70
2022-09-27T20:01:22.314Z,82.50
2022-09-27T20:03:50.678Z,82.40
2022-09-27T20:06:19.295Z,81.00
2022-09-27T20:08:47.919Z,80.60
2022-09-27T20:11:17.538Z,80.70
2022-09-27T20:13:44.991Z,80.10
2022-09-27T20:16:17.639Z,80.20
2022-09-27T20:18:46.753Z,79.70
2022-09-27T20:21:14.441Z,78.50
2022-09-27T20:23:41.672Z,78.80
2022-09-27T20:26:10.926Z,79.00
2022-09-27T20:28:42.631Z,78.00
2022-09-27T20:31:11.574Z,76.00
2022-09-27T20:33:41.373Z,76.70
2022-09-27T20:36:18.676Z,79.20
2022-09-27T20:38:47.935Z,80.80
2022-09-27T20:41:19.601Z,82.30
2022-09-27T20:43:51.837Z,83.10
2022-09-27T20:46:19.685Z,84.40
2022-09-27T20:48:52.255Z,84.60
2022-09-27T20:51:19.276Z,86.10
2022-09-27T20:53:46.494Z,87.30
2022-09-27T20:56:30.646Z,88.10
2022-09-27T20:58:59.267Z,88.70
2022-09-27T21:01:28.016Z,89.30
2022-09-27T21:03:59.751Z,90.20
2022-09-27T21:06:27.333Z,90.00
2022-09-27T21:08:55.383Z,90.00
2022-09-27T21:11:22.843Z,90.00
2022-09-27T21:13:50.581Z,89.90
2022-09-27T21:16:23.062Z,90.10
2022-09-27T21:18:51.511Z,89.70
2022-09-27T21:21:19.110Z,89.30
2022-09-27T21:23:46.728Z,90.00
2022-09-27T21:26:21.843Z,90.10
2022-09-27T21:28:54.296Z,90.10
2022-09-27T21:31:24.033Z,90.50
2022-09-27T21:33:54.635Z,90.40
2022-09-27T21:36:23.620Z,90.20
2022-09-27T21:38:51.046Z,90.10
2022-09-27T21:41:19.163Z,90.40
2022-09-27T21:43:48.831Z,90.20
2022-09-27T21:46:27.205Z,90.50
2022-09-27T21:49:03.137Z,90.50
2022-09-27T21:51:41.657Z,90.50
2022-09-27T21:54:14.730Z,90.50
2022-09-27T21:56:42.555Z,90.60
2022-09-27T21:59:15.080Z,90.00
2022-09-27T22:01:46.112Z,89.10
2022-09-27T22:04:13.190Z,87.60
2022-09-27T22:06:40.011Z,87.30
2022-09-27T22:09:15.563Z,87.40
2022-09-27T22:11:44.213Z,87.70
2022-09-27T22:14:12.198Z,87.70
2022-09-27T22:16:39.065Z,87.30
2022-09-27T22:19:05.916Z,87.60
2022-09-27T22:21:35.710Z,87.80
2022-09-27T22:24:07.954Z,88.00
2022-09-27T22:26:37.896Z,87.50
2022-09-27T22:29:05.962Z,87.20
2022-09-27T22:31:33.369Z,87.20
2022-09-27T22:34:03.539Z,87.50
2022-09-27T22:36:31.502Z,88.40
2022-09-27T22:38:58.550Z,88.40
2022-09-27T22:41:26.014Z,87.80
2022-09-27T22:43:56.059Z,88.60
2022-09-27T22:46:22.860Z,88.00
2022-09-27T22:48:49.844Z,88.80
2022-09-27T22:51:17.079Z,89.40
2022-09-27T22:53:44.356Z,89.80
2022-09-27T22:56:15.768Z,89.80
2022-09-27T22:58:43.945Z,90.00
2022-09-27T23:01:19.260Z,89.50
2022-09-27T23:03:47.309Z,89.70
2022-09-27T23:06:16.291Z,90.10
2022-09-27T23:08:43.214Z,90.40
2022-09-27T23:11:12.870Z,90.60
2022-09-27T23:13:43.843Z,90.80
2022-09-27T23:16:16.133Z,91.10
2022-09-27T23:18:44.129Z,91.00
2022-09-27T23:21:12.872Z,90.70
2022-09-27T23:23:42.065Z,91.00
2022-09-27T23:26:11.325Z,90.90
2022-09-27T23:28:38.167Z,90.70
2022-09-27T23:31:13.579Z,90.80
2022-09-27T23:33:42.734Z,90.70
2022-09-27T23:36:12.151Z,90.80
2022-09-27T23:38:41.008Z,90.80
2022-09-27T23:41:08.337Z,91.00
2022-09-27T23:43:36.396Z,91.20
2022-09-27T23:46:05.512Z,91.70
2022-09-27T23:48:34.315Z,91.90
2022-09-27T23:51:02.075Z,92.30
2022-09-27T23:53:28.791Z,92.40
2022-09-27T23:56:06.608Z,92.90
2022-09-27T23:58:41.080Z,93.00
